sensor_id;sensor_type;location;lat;lon;timestamp;temperature;humidity
7472;DHT22;3777;48.722;8.110;2023-04-01T00:01:41;11.00;99.90
7472;DHT22;3777;48.722;8.110;2023-04-01T00:04:09;11.00;99.90
7472;DHT22;3777;48.722;8.110;2023-04-01T00:06:36;11.00;99.90
7472;DHT22;3777;48.722;8.110;2023-04-01T00:09:03;11.00;99.90
7472;DHT22;3777;48.722;8.110;2023-04-01T00:11:30;11.10;99.90
7472;DHT22;3777;48.722;8.110;2023-04-01T00:13:57;11.10;99.90
7472;DHT22;3777;48.722;8.110;2023-04-01T00:16:24;11.10;99.90
7472;DHT22;3777;48.722;8.110;2023-04-01T00:18:51;10.90;99.90
7472;DHT22;3777;48.722;8.110;2023-04-01T00:21:20;11.00;99.90
7472;DHT22;3777;48.722;8.110;2023-04-01T00:23:47;11.00;99.90
7472;DHT22;3777;48.722;8.110;2023-04-01T00:26:14;10.90;99.90
7472;DHT22;3777;48.722;8.110;2023-04-01T00:28:44;10.90;99.90
7472;DHT22;3777;48.722;8.110;2023-04-01T00:31:12;11.00;99.90
7472;DHT22;3777;48.722;8.110;2023-04-01T00:33:40;10.90;99.90
7472;DHT22;3777;48.722;8.110;2023-04-01T00:36:09;11.00;99.90
7472;DHT22;3777;48.722;8.110;2023-04-01T00:38:38;11.10;99.90
7472;DHT22;3777;48.722;8.110;2023-04-01T00:41:06;11.10;99.90
7472;DHT22;3777;48.722;8.110;2023-04-01T00:43:34;11.10;99.90
7472;DHT22;3777;48.722;8.110;2023-04-01T00:46:01;11.10;99.90
7472;DHT22;3777;48.722;8.110;2023-04-01T00:48:30;11.10;99.90
7472;DHT22;3777;48.722;8.110;2023-04-01T00:51:01;11.00;99.90
7472;DHT22;3777;48.722;8.110;2023-04-01T00:53:30;11.00;99.90
7472;DHT22;3777;48.722;8.110;2023-04-01T00:56:02;11.00;99.90
7472;DHT22;3777;48.722;8.110;2023-04-01T00:58:34;11.00;99.90
7472;DHT22;3777;48.722;8.110;2023-04-01T01:01:01;11.00;99.90
7472;DHT22;3777;48.722;8.110;2023-04-01T01:03:28;11.10;99.90
7472;DHT22;3777;48.722;8.110;2023-04-01T01:06:11;11.00;99.90
7472;DHT22;3777;48.722;8.110;2023-04-01T01:09:06;10.90;99.90
7472;DHT22;3777;48.722;8.110;2023-04-01T01:11:41;11.00;99.90
7472;DHT22;3777;48.722;8.110;2023-04-01T01:14:16;11.00;99.90
7472;DHT22;3777;48.722;8.110;2023-04-01T01:16:51;11.00;99.90
7472;DHT22;3777;48.722;8.110;2023-04-01T01:19:40;11.00;99.90
7472;DHT22;3777;48.722;8.110;2023-04-01T01:22:32;10.90;99.90
7472;DHT22;3777;48.722;8.110;2023-04-01T01:25:13;10.90;99.90
7472;DHT22;3777;48.722;8.110;2023-04-01T01:27:49;10.90;99.90
7472;DHT22;3777;48.722;8.110;2023-04-01T01:30:32;10.90;99.90
7472;DHT22;3777;48.722;8.110;2023-04-01T01:35:59;10.80;99.90
7472;DHT22;3777;48.722;8.110;2023-04-01T01:38:31;10.80;99.90
7472;DHT22;3777;48.722;8.110;2023-04-01T01:41:01;10.70;99.90
7472;DHT22;3777;48.722;8.110;2023-04-01T01:43:30;10.60;99.90
7472;DHT22;3777;48.722;8.110;2023-04-01T01:46:01;10.60;99.90
7472;DHT22;3777;48.722;8.110;2023-04-01T01:48:31;10.60;99.90
7472;DHT22;3777;48.722;8.110;2023-04-01T01:51:00;10.60;99.90
7472;DHT22;3777;48.722;8.110;2023-04-01T01:53:27;10.60;99.90
7472;DHT22;3777;48.722;8.110;2023-04-01T01:55:54;10.60;99.90
7472;DHT22;3777;48.722;8.110;2023-04-01T01:58:23;10.60;99.90
7472;DHT22;3777;48.722;8.110;2023-04-01T02:00:54;10.50;99.90
7472;DHT22;3777;48.722;8.110;2023-04-01T02:03:24;10.50;99.90
7472;DHT22;3777;48.722;8.110;2023-04-01T02:05:55;10.50;99.90
7472;DHT22;3777;48.722;8.110;2023-04-01T02:08:27;10.50;99.90
7472;DHT22;3777;48.722;8.110;2023-04-01T02:10:57;10.40;99.90
7472;DHT22;3777;48.722;8.110;2023-04-01T02:13:30;10.40;99.90
7472;DHT22;3777;48.722;8.110;2023-04-01T02:16:01;10.40;99.90
7472;DHT22;3777;48.722;8.110;2023-04-01T02:18:31;10.40;99.90
7472;DHT22;3777;48.722;8.110;2023-04-01T02:21:00;10.40;99.90
7472;DHT22;3777;48.722;8.110;2023-04-01T02:23:29;10.40;99.90
7472;DHT22;3777;48.722;8.110;2023-04-01T02:25:57;10.40;99.90
7472;DHT22;3777;48.722;8.110;2023-04-01T02:28:24;10.50;99.90
7472;DHT22;3777;48.722;8.110;2023-04-01T02:30:52;10.50;99.90
7472;DHT22;3777;48.722;8.110;2023-04-01T02:33:19;10.50;99.90
7472;DHT22;3777;48.722;8.110;2023-04-01T02:35:47;10.50;99.90
7472;DHT22;3777;48.722;8.110;2023-04-01T02:38:14;10.50;99.90
7472;DHT22;3777;48.722;8.110;2023-04-01T02:40:45;10.40;99.90
7472;DHT22;3777;48.722;8.110;2023-04-01T02:43:13;10.50;99.90
7472;DHT22;3777;48.722;8.110;2023-04-01T02:45:40;10.50;99.90
7472;DHT22;3777;48.722;8.110;2023-04-01T02:48:07;10.50;99.90
7472;DHT22;3777;48.722;8.110;2023-04-01T02:50:34;10.60;99.90
7472;DHT22;3777;48.722;8.110;2023-04-01T02:53:01;10.50;99.90
7472;DHT22;3777;48.722;8.110;2023-04-01T02:55:29;10.60;99.90
7472;DHT22;3777;48.722;8.110;2023-04-01T02:57:57;10.60;99.90
7472;DHT22;3777;48.722;8.110;2023-04-01T03:00:25;10.60;99.90
7472;DHT22;3777;48.722;8.110;2023-04-01T03:02:52;10.50;99.90
7472;DHT22;3777;48.722;8.110;2023-04-01T03:05:20;10.50;99.90
7472;DHT22;3777;48.722;8.110;2023-04-01T03:07:47;10.50;99.90
7472;DHT22;3777;48.722;8.110;2023-04-01T03:10:17;10.50;99.90
7472;DHT22;3777;48.722;8.110;2023-04-01T03:12:44;10.50;99.90
7472;DHT22;3777;48.722;8.110;2023-04-01T03:15:13;10.50;99.90
7472;DHT22;3777;48.722;8.110;2023-04-01T03:17:41;10.50;99.90
7472;DHT22;3777;48.722;8.110;2023-04-01T03:20:09;10.50;99.90
7472;DHT22;3777;48.722;8.110;2023-04-01T03:22:36;10.50;99.90
7472;DHT22;3777;48.722;8.110;2023-04-01T03:25:04;10.50;99.90
7472;DHT22;3777;48.722;8.110;2023-04-01T03:27:33;10.50;99.90
7472;DHT22;3777;48.722;8.110;2023-04-01T03:30:00;10.60;99.90
7472;DHT22;3777;48.722;8.110;2023-04-01T03:32:28;10.60;99.90
7472;DHT22;3777;48.722;8.110;2023-04-01T03:34:56;10.60;99.90
7472;DHT22;3777;48.722;8.110;2023-04-01T03:37:23;10.70;99.90
7472;DHT22;3777;48.722;8.110;2023-04-01T03:39:50;10.70;99.90
7472;DHT22;3777;48.722;8.110;2023-04-01T03:42:17;10.80;99.90
7472;DHT22;3777;48.722;8.110;2023-04-01T03:44:44;10.80;99.90
7472;DHT22;3777;48.722;8.110;2023-04-01T03:47:11;10.80;99.90
7472;DHT22;3777;48.722;8.110;2023-04-01T03:49:39;10.80;99.90
7472;DHT22;3777;48.722;8.110;2023-04-01T03:52:09;10.80;99.90
7472;DHT22;3777;48.722;8.110;2023-04-01T03:54:36;10.80;99.90
7472;DHT22;3777;48.722;8.110;2023-04-01T03:57:03;10.80;99.90
7472;DHT22;3777;48.722;8.110;2023-04-01T03:59:30;10.80;99.90
7472;DHT22;3777;48.722;8.110;2023-04-01T04:01:57;10.80;99.90
7472;DHT22;3777;48.722;8.110;2023-04-01T04:04:24;10.90;99.90
7472;DHT22;3777;48.722;8.110;2023-04-01T04:06:53;10.90;99.90
7472;DHT22;3777;48.722;8.110;2023-04-01T04:09:20;10.90;99.90
7472;DHT22;3777;48.722;8.110;2023-04-01T04:11:47;10.90;99.90
7472;DHT22;3777;48.722;8.110;2023-04-01T04:14:14;10.90;99.90
7472;DHT22;3777;48.722;8.110;2023-04-01T04:16:41;10.90;99.90
7472;DHT22;3777;48.722;8.110;2023-04-01T04:19:08;11.00;99.90
7472;DHT22;3777;48.722;8.110;2023-04-01T04:21:35;11.00;99.90
7472;DHT22;3777;48.722;8.110;2023-04-01T04:24:03;11.10;99.90
7472;DHT22;3777;48.722;8.110;2023-04-01T04:26:30;11.00;99.90
7472;DHT22;3777;48.722;8.110;2023-04-01T04:28:57;11.00;99.90
7472;DHT22;3777;48.722;8.110;2023-04-01T04:31:25;10.90;99.90
7472;DHT22;3777;48.722;8.110;2023-04-01T04:33:52;10.90;99.90
7472;DHT22;3777;48.722;8.110;2023-04-01T04:36:19;10.90;99.90
7472;DHT22;3777;48.722;8.110;2023-04-01T04:38:46;10.90;99.90
7472;DHT22;3777;48.722;8.110;2023-04-01T04:41:17;10.90;99.90
7472;DHT22;3777;48.722;8.110;2023-04-01T04:43:49;10.90;99.90
7472;DHT22;3777;48.722;8.110;2023-04-01T04:46:16;10.90;99.90
7472;DHT22;3777;48.722;8.110;2023-04-01T04:48:43;10.90;99.90
7472;DHT22;3777;48.722;8.110;2023-04-01T04:51:13;10.80;99.90
7472;DHT22;3777;48.722;8.110;2023-04-01T04:53:41;10.80;99.90
7472;DHT22;3777;48.722;8.110;2023-04-01T04:56:08;10.70;99.90
7472;DHT22;3777;48.722;8.110;2023-04-01T04:58:36;10.70;99.90
7472;DHT22;3777;48.722;8.110;2023-04-01T05:01:08;10.70;99.90
7472;DHT22;3777;48.722;8.110;2023-04-01T05:03:36;10.60;99.90
7472;DHT22;3777;48.722;8.110;2023-04-01T05:06:03;10.60;99.90
7472;DHT22;3777;48.722;8.110;2023-04-01T05:08:31;10.60;99.90
7472;DHT22;3777;48.722;8.110;2023-04-01T05:10:58;10.60;99.90
7472;DHT22;3777;48.722;8.110;2023-04-01T05:13:25;10.70;99.90
7472;DHT22;3777;48.722;8.110;2023-04-01T05:15:53;10.70;99.90
7472;DHT22;3777;48.722;8.110;2023-04-01T05:18:20;10.70;99.90
7472;DHT22;3777;48.722;8.110;2023-04-01T05:20:49;10.70;99.90
7472;DHT22;3777;48.722;8.110;2023-04-01T05:23:16;10.80;99.90
7472;DHT22;3777;48.722;8.110;2023-04-01T05:25:43;10.80;99.90
7472;DHT22;3777;48.722;8.110;2023-04-01T05:28:11;10.80;99.90
7472;DHT22;3777;48.722;8.110;2023-04-01T05:30:40;10.80;99.90
7472;DHT22;3777;48.722;8.110;2023-04-01T05:33:10;10.90;99.90
7472;DHT22;3777;48.722;8.110;2023-04-01T05:35:37;10.90;99.90
7472;DHT22;3777;48.722;8.110;2023-04-01T05:38:04;11.00;99.90
7472;DHT22;3777;48.722;8.110;2023-04-01T05:40:31;10.80;99.90
7472;DHT22;3777;48.722;8.110;2023-04-01T05:42:59;10.60;99.90
7472;DHT22;3777;48.722;8.110;2023-04-01T05:45:26;10.40;99.90
7472;DHT22;3777;48.722;8.110;2023-04-01T05:47:53;10.30;99.90
7472;DHT22;3777;48.722;8.110;2023-04-01T05:50:21;10.30;99.90
7472;DHT22;3777;48.722;8.110;2023-04-01T05:52:48;10.20;99.90
7472;DHT22;3777;48.722;8.110;2023-04-01T05:55:16;10.20;99.90
7472;DHT22;3777;48.722;8.110;2023-04-01T05:57:44;10.10;99.90
7472;DHT22;3777;48.722;8.110;2023-04-01T06:00:12;10.10;99.90
7472;DHT22;3777;48.722;8.110;2023-04-01T06:02:40;10.20;99.90
7472;DHT22;3777;48.722;8.110;2023-04-01T06:05:14;10.10;99.90
7472;DHT22;3777;48.722;8.110;2023-04-01T06:07:42;10.20;99.90
7472;DHT22;3777;48.722;8.110;2023-04-01T06:10:13;10.20;99.90
7472;DHT22;3777;48.722;8.110;2023-04-01T06:12:45;10.20;99.90
7472;DHT22;3777;48.722;8.110;2023-04-01T06:15:22;10.30;99.90
7472;DHT22;3777;48.722;8.110;2023-04-01T06:18:03;10.30;99.90
7472;DHT22;3777;48.722;8.110;2023-04-01T06:20:39;10.30;99.90
7472;DHT22;3777;48.722;8.110;2023-04-01T06:26:12;10.40;99.90
7472;DHT22;3777;48.722;8.110;2023-04-01T06:32:19;10.50;99.90
7472;DHT22;3777;48.722;8.110;2023-04-01T06:35:11;10.50;99.90
7472;DHT22;3777;48.722;8.110;2023-04-01T06:37:52;10.40;99.90
7472;DHT22;3777;48.722;8.110;2023-04-01T06:40:48;10.40;99.90
7472;DHT22;3777;48.722;8.110;2023-04-01T06:43:28;10.50;99.90
7472;DHT22;3777;48.722;8.110;2023-04-01T06:46:05;10.50;99.90
7472;DHT22;3777;48.722;8.110;2023-04-01T06:51:30;10.50;99.90
7472;DHT22;3777;48.722;8.110;2023-04-01T06:54:04;10.50;99.90
7472;DHT22;3777;48.722;8.110;2023-04-01T06:56:36;10.50;99.90
7472;DHT22;3777;48.722;8.110;2023-04-01T06:59:06;10.50;99.90
7472;DHT22;3777;48.722;8.110;2023-04-01T07:01:39;10.50;99.90
7472;DHT22;3777;48.722;8.110;2023-04-01T07:04:13;10.50;99.90
7472;DHT22;3777;48.722;8.110;2023-04-01T07:06:45;10.60;99.90
7472;DHT22;3777;48.722;8.110;2023-04-01T07:09:16;10.60;99.90
7472;DHT22;3777;48.722;8.110;2023-04-01T07:11:46;10.70;99.90
7472;DHT22;3777;48.722;8.110;2023-04-01T07:14:18;10.70;99.90
7472;DHT22;3777;48.722;8.110;2023-04-01T07:16:49;10.80;99.90
7472;DHT22;3777;48.722;8.110;2023-04-01T07:19:22;10.70;99.90
7472;DHT22;3777;48.722;8.110;2023-04-01T07:21:54;10.70;99.90
7472;DHT22;3777;48.722;8.110;2023-04-01T07:24:26;10.60;99.90
7472;DHT22;3777;48.722;8.110;2023-04-01T07:26:56;10.60;99.90
7472;DHT22;3777;48.722;8.110;2023-04-01T07:29:25;10.70;99.90
7472;DHT22;3777;48.722;8.110;2023-04-01T07:32:07;10.70;99.90
7472;DHT22;3777;48.722;8.110;2023-04-01T07:34:39;10.70;99.90
7472;DHT22;3777;48.722;8.110;2023-04-01T07:37:15;10.70;99.90
7472;DHT22;3777;48.722;8.110;2023-04-01T07:39:51;10.70;99.90
7472;DHT22;3777;48.722;8.110;2023-04-01T07:42:34;10.70;99.90
7472;DHT22;3777;48.722;8.110;2023-04-01T07:45:11;10.70;99.90
7472;DHT22;3777;48.722;8.110;2023-04-01T07:48:01;10.70;99.90
7472;DHT22;3777;48.722;8.110;2023-04-01T07:50:34;10.70;99.90
7472;DHT22;3777;48.722;8.110;2023-04-01T07:53:11;10.60;99.90
7472;DHT22;3777;48.722;8.110;2023-04-01T07:55:46;10.50;99.90
7472;DHT22;3777;48.722;8.110;2023-04-01T07:58:22;10.50;99.90
7472;DHT22;3777;48.722;8.110;2023-04-01T08:00:58;10.50;99.90
7472;DHT22;3777;48.722;8.110;2023-04-01T08:03:36;10.40;99.90
7472;DHT22;3777;48.722;8.110;2023-04-01T08:06:10;10.40;99.90
7472;DHT22;3777;48.722;8.110;2023-04-01T08:08:46;10.40;99.90
7472;DHT22;3777;48.722;8.110;2023-04-01T08:11:25;10.40;99.90
7472;DHT22;3777;48.722;8.110;2023-04-01T08:14:04;10.40;99.90
7472;DHT22;3777;48.722;8.110;2023-04-01T08:16:41;10.40;99.90
7472;DHT22;3777;48.722;8.110;2023-04-01T08:19:15;10.50;99.90
7472;DHT22;3777;48.722;8.110;2023-04-01T08:21:48;10.50;99.90
7472;DHT22;3777;48.722;8.110;2023-04-01T08:24:22;10.40;99.90
7472;DHT22;3777;48.722;8.110;2023-04-01T08:26:53;10.40;99.90
7472;DHT22;3777;48.722;8.110;2023-04-01T08:29:27;10.40;99.90
7472;DHT22;3777;48.722;8.110;2023-04-01T08:32:05;10.50;99.90
7472;DHT22;3777;48.722;8.110;2023-04-01T08:34:36;10.40;99.90
7472;DHT22;3777;48.722;8.110;2023-04-01T08:37:07;10.40;99.90
7472;DHT22;3777;48.722;8.110;2023-04-01T08:39:38;10.50;99.90
7472;DHT22;3777;48.722;8.110;2023-04-01T08:42:34;10.40;99.90
7472;DHT22;3777;48.722;8.110;2023-04-01T08:45:37;10.50;99.90
7472;DHT22;3777;48.722;8.110;2023-04-01T08:48:23;10.40;99.90
7472;DHT22;3777;48.722;8.110;2023-04-01T08:51:24;10.40;99.90
7472;DHT22;3777;48.722;8.110;2023-04-01T08:56:52;10.20;99.90
7472;DHT22;3777;48.722;8.110;2023-04-01T08:59:49;10.20;99.90
7472;DHT22;3777;48.722;8.110;2023-04-01T09:02:33;10.10;99.90
7472;DHT22;3777;48.722;8.110;2023-04-01T09:05:35;10.20;99.90
7472;DHT22;3777;48.722;8.110;2023-04-01T09:08:12;10.20;99.90
7472;DHT22;3777;48.722;8.110;2023-04-01T09:10:56;10.10;99.90
7472;DHT22;3777;48.722;8.110;2023-04-01T09:16:26;10.20;99.90
7472;DHT22;3777;48.722;8.110;2023-04-01T09:19:18;10.20;99.90
7472;DHT22;3777;48.722;8.110;2023-04-01T09:22:21;10.20;99.90
7472;DHT22;3777;48.722;8.110;2023-04-01T09:27:56;10.10;99.90
7472;DHT22;3777;48.722;8.110;2023-04-01T09:34:01;10.20;99.90
7472;DHT22;3777;48.722;8.110;2023-04-01T09:36:44;10.20;99.90
7472;DHT22;3777;48.722;8.110;2023-04-01T09:39:31;10.30;99.90
7472;DHT22;3777;48.722;8.110;2023-04-01T09:42:13;10.40;99.90
7472;DHT22;3777;48.722;8.110;2023-04-01T09:44:44;10.50;99.90
7472;DHT22;3777;48.722;8.110;2023-04-01T09:47:25;10.50;99.90
7472;DHT22;3777;48.722;8.110;2023-04-01T09:50:17;10.50;99.90
7472;DHT22;3777;48.722;8.110;2023-04-01T09:52:59;10.60;99.90
7472;DHT22;3777;48.722;8.110;2023-04-01T10:01:45;10.60;99.90
7472;DHT22;3777;48.722;8.110;2023-04-01T10:04:56;10.40;99.90
7472;DHT22;3777;48.722;8.110;2023-04-01T10:07:57;10.50;99.90
7472;DHT22;3777;48.722;8.110;2023-04-01T10:13:48;10.50;99.90
7472;DHT22;3777;48.722;8.110;2023-04-01T10:19:49;10.50;99.90
7472;DHT22;3777;48.722;8.110;2023-04-01T10:22:58;10.70;99.90
7472;DHT22;3777;48.722;8.110;2023-04-01T10:32:00;10.90;99.90
7472;DHT22;3777;48.722;8.110;2023-04-01T10:34:57;11.00;99.90
7472;DHT22;3777;48.722;8.110;2023-04-01T10:40:44;11.10;99.90
7472;DHT22;3777;48.722;8.110;2023-04-01T10:43:58;11.10;99.90
7472;DHT22;3777;48.722;8.110;2023-04-01T10:46:46;11.30;99.90
7472;DHT22;3777;48.722;8.110;2023-04-01T10:49:43;11.30;99.90
7472;DHT22;3777;48.722;8.110;2023-04-01T10:52:26;11.40;99.90
7472;DHT22;3777;48.722;8.110;2023-04-01T10:55:10;11.40;99.90
7472;DHT22;3777;48.722;8.110;2023-04-01T10:58:04;11.40;99.90
7472;DHT22;3777;48.722;8.110;2023-04-01T11:00:58;11.40;99.90
7472;DHT22;3777;48.722;8.110;2023-04-01T11:04:01;11.60;99.90
7472;DHT22;3777;48.722;8.110;2023-04-01T11:07:22;11.70;99.90
7472;DHT22;3777;48.722;8.110;2023-04-01T11:13:46;11.90;99.90
7472;DHT22;3777;48.722;8.110;2023-04-01T11:19:56;11.60;99.90
7472;DHT22;3777;48.722;8.110;2023-04-01T11:22:44;11.70;99.90
7472;DHT22;3777;48.722;8.110;2023-04-01T11:25:24;11.60;99.90
7472;DHT22;3777;48.722;8.110;2023-04-01T11:28:27;11.50;99.90
7472;DHT22;3777;48.722;8.110;2023-04-01T11:31:12;11.40;99.90
7472;DHT22;3777;48.722;8.110;2023-04-01T11:33:50;11.40;99.90
7472;DHT22;3777;48.722;8.110;2023-04-01T11:36:32;11.50;99.90
7472;DHT22;3777;48.722;8.110;2023-04-01T11:39:14;11.50;99.90
7472;DHT22;3777;48.722;8.110;2023-04-01T11:41:55;11.60;99.90
7472;DHT22;3777;48.722;8.110;2023-04-01T11:44:28;11.60;99.90
7472;DHT22;3777;48.722;8.110;2023-04-01T11:47:19;11.60;99.90
7472;DHT22;3777;48.722;8.110;2023-04-01T11:49:59;11.70;99.90
7472;DHT22;3777;48.722;8.110;2023-04-01T11:52:50;11.70;99.90
7472;DHT22;3777;48.722;8.110;2023-04-01T11:55:27;11.70;99.90
7472;DHT22;3777;48.722;8.110;2023-04-01T11:58:24;11.70;99.90
7472;DHT22;3777;48.722;8.110;2023-04-01T12:01:07;11.70;99.90
7472;DHT22;3777;48.722;8.110;2023-04-01T12:04:12;11.60;99.90
7472;DHT22;3777;48.722;8.110;2023-04-01T12:06:50;11.60;99.90
7472;DHT22;3777;48.722;8.110;2023-04-01T12:09:24;11.70;99.90
7472;DHT22;3777;48.722;8.110;2023-04-01T12:12:09;11.70;99.90
7472;DHT22;3777;48.722;8.110;2023-04-01T12:14:42;11.70;99.90
7472;DHT22;3777;48.722;8.110;2023-04-01T12:17:20;11.80;99.90
7472;DHT22;3777;48.722;8.110;2023-04-01T12:19:53;11.80;99.90
7472;DHT22;3777;48.722;8.110;2023-04-01T12:22:33;11.60;99.90
7472;DHT22;3777;48.722;8.110;2023-04-01T12:25:14;11.50;99.90
7472;DHT22;3777;48.722;8.110;2023-04-01T12:27:53;11.60;99.90
7472;DHT22;3777;48.722;8.110;2023-04-01T12:33:54;11.70;99.90
7472;DHT22;3777;48.722;8.110;2023-04-01T12:36:35;11.80;99.90
7472;DHT22;3777;48.722;8.110;2023-04-01T12:39:37;11.80;99.90
7472;DHT22;3777;48.722;8.110;2023-04-01T12:42:16;11.80;99.90
7472;DHT22;3777;48.722;8.110;2023-04-01T12:44:56;11.80;99.90
7472;DHT22;3777;48.722;8.110;2023-04-01T12:47:57;11.80;99.90
7472;DHT22;3777;48.722;8.110;2023-04-01T12:50:44;11.80;99.90
7472;DHT22;3777;48.722;8.110;2023-04-01T12:53:30;11.70;99.90
7472;DHT22;3777;48.722;8.110;2023-04-01T12:56:03;11.70;99.90
7472;DHT22;3777;48.722;8.110;2023-04-01T12:59:01;11.80;99.90
7472;DHT22;3777;48.722;8.110;2023-04-01T13:02:01;11.70;99.90
7472;DHT22;3777;48.722;8.110;2023-04-01T13:07:58;11.70;99.90
7472;DHT22;3777;48.722;8.110;2023-04-01T13:10:51;11.70;99.90
7472;DHT22;3777;48.722;8.110;2023-04-01T13:13:53;11.60;99.90
7472;DHT22;3777;48.722;8.110;2023-04-01T13:16:26;11.60;99.90
7472;DHT22;3777;48.722;8.110;2023-04-01T13:18:58;11.40;99.90
7472;DHT22;3777;48.722;8.110;2023-04-01T13:21:38;11.50;99.90
7472;DHT22;3777;48.722;8.110;2023-04-01T13:24:17;11.50;99.90
7472;DHT22;3777;48.722;8.110;2023-04-01T13:26:56;11.60;99.90
7472;DHT22;3777;48.722;8.110;2023-04-01T13:29:28;11.70;99.90
7472;DHT22;3777;48.722;8.110;2023-04-01T13:32:05;11.80;99.90
7472;DHT22;3777;48.722;8.110;2023-04-01T13:34:44;11.80;99.90
7472;DHT22;3777;48.722;8.110;2023-04-01T13:37:32;11.70;99.90
7472;DHT22;3777;48.722;8.110;2023-04-01T13:40:16;11.70;99.90
7472;DHT22;3777;48.722;8.110;2023-04-01T13:42:51;11.70;99.90
7472;DHT22;3777;48.722;8.110;2023-04-01T13:45:22;11.70;99.90
7472;DHT22;3777;48.722;8.110;2023-04-01T13:51:07;12.00;99.90
7472;DHT22;3777;48.722;8.110;2023-04-01T13:54:09;12.00;99.90
7472;DHT22;3777;48.722;8.110;2023-04-01T13:56:48;12.10;99.90
7472;DHT22;3777;48.722;8.110;2023-04-01T13:59:35;12.20;99.90
7472;DHT22;3777;48.722;8.110;2023-04-01T14:02:19;12.20;99.90
7472;DHT22;3777;48.722;8.110;2023-04-01T14:05:06;12.30;99.90
7472;DHT22;3777;48.722;8.110;2023-04-01T14:07:50;12.30;99.90
7472;DHT22;3777;48.722;8.110;2023-04-01T14:10:25;12.40;99.90
7472;DHT22;3777;48.722;8.110;2023-04-01T14:13:01;12.50;99.90
7472;DHT22;3777;48.722;8.110;2023-04-01T14:18:46;12.50;99.90
7472;DHT22;3777;48.722;8.110;2023-04-01T14:21:27;12.50;99.90
7472;DHT22;3777;48.722;8.110;2023-04-01T14:24:17;12.50;99.90
7472;DHT22;3777;48.722;8.110;2023-04-01T14:27:02;12.50;99.90
7472;DHT22;3777;48.722;8.110;2023-04-01T14:29:43;12.40;99.90
7472;DHT22;3777;48.722;8.110;2023-04-01T14:32:22;12.30;99.90
7472;DHT22;3777;48.722;8.110;2023-04-01T14:35:09;12.30;99.90
7472;DHT22;3777;48.722;8.110;2023-04-01T14:40:32;12.20;99.90
7472;DHT22;3777;48.722;8.110;2023-04-01T14:43:18;12.20;99.90
7472;DHT22;3777;48.722;8.110;2023-04-01T14:46:10;12.20;99.90
7472;DHT22;3777;48.722;8.110;2023-04-01T14:48:51;12.10;99.90
7472;DHT22;3777;48.722;8.110;2023-04-01T14:51:22;12.10;99.90
7472;DHT22;3777;48.722;8.110;2023-04-01T14:53:59;12.10;99.90
7472;DHT22;3777;48.722;8.110;2023-04-01T14:56:40;12.00;99.90
7472;DHT22;3777;48.722;8.110;2023-04-01T14:59:13;11.90;99.90
7472;DHT22;3777;48.722;8.110;2023-04-01T15:01:47;11.80;99.90
7472;DHT22;3777;48.722;8.110;2023-04-01T15:04:36;11.90;99.90
7472;DHT22;3777;48.722;8.110;2023-04-01T15:07:21;11.90;99.90
7472;DHT22;3777;48.722;8.110;2023-04-01T15:09:53;11.90;99.90
7472;DHT22;3777;48.722;8.110;2023-04-01T15:12:28;11.80;99.90
7472;DHT22;3777;48.722;8.110;2023-04-01T15:15:19;11.90;99.90
7472;DHT22;3777;48.722;8.110;2023-04-01T15:18:07;11.90;99.90
7472;DHT22;3777;48.722;8.110;2023-04-01T15:20:50;11.90;99.90
7472;DHT22;3777;48.722;8.110;2023-04-01T15:23:28;12.00;99.90
7472;DHT22;3777;48.722;8.110;2023-04-01T15:26:13;12.00;99.90
7472;DHT22;3777;48.722;8.110;2023-04-01T15:28:54;12.10;99.90
7472;DHT22;3777;48.722;8.110;2023-04-01T15:31:27;12.20;99.90
7472;DHT22;3777;48.722;8.110;2023-04-01T15:34:11;12.20;99.90
7472;DHT22;3777;48.722;8.110;2023-04-01T15:36:49;12.10;99.90
7472;DHT22;3777;48.722;8.110;2023-04-01T15:39:21;12.20;99.90
7472;DHT22;3777;48.722;8.110;2023-04-01T15:42:11;12.20;99.90
7472;DHT22;3777;48.722;8.110;2023-04-01T15:44:47;12.20;99.90
7472;DHT22;3777;48.722;8.110;2023-04-01T15:47:37;12.20;99.90
7472;DHT22;3777;48.722;8.110;2023-04-01T15:50:26;12.10;99.90
7472;DHT22;3777;48.722;8.110;2023-04-01T15:53:07;12.10;99.90
7472;DHT22;3777;48.722;8.110;2023-04-01T15:55:40;12.10;99.90
7472;DHT22;3777;48.722;8.110;2023-04-01T15:58:27;12.10;99.90
7472;DHT22;3777;48.722;8.110;2023-04-01T16:01:04;12.10;99.90
7472;DHT22;3777;48.722;8.110;2023-04-01T16:03:39;12.10;99.90
7472;DHT22;3777;48.722;8.110;2023-04-01T16:06:33;12.00;99.90
7472;DHT22;3777;48.722;8.110;2023-04-01T16:09:15;12.10;99.90
7472;DHT22;3777;48.722;8.110;2023-04-01T16:11:52;12.10;99.90
7472;DHT22;3777;48.722;8.110;2023-04-01T16:14:35;12.00;99.90
7472;DHT22;3777;48.722;8.110;2023-04-01T16:17:12;11.70;99.90
7472;DHT22;3777;48.722;8.110;2023-04-01T16:19:51;11.60;99.90
7472;DHT22;3777;48.722;8.110;2023-04-01T16:22:23;11.60;99.90
7472;DHT22;3777;48.722;8.110;2023-04-01T16:24:55;11.60;99.90
7472;DHT22;3777;48.722;8.110;2023-04-01T16:27:29;11.70;99.90
7472;DHT22;3777;48.722;8.110;2023-04-01T16:30:03;11.80;99.90
7472;DHT22;3777;48.722;8.110;2023-04-01T16:32:53;11.90;99.90
7472;DHT22;3777;48.722;8.110;2023-04-01T16:35:29;12.00;99.90
7472;DHT22;3777;48.722;8.110;2023-04-01T16:38:07;12.10;99.90
7472;DHT22;3777;48.722;8.110;2023-04-01T16:40:44;12.10;99.90
7472;DHT22;3777;48.722;8.110;2023-04-01T16:43:19;12.00;99.90
7472;DHT22;3777;48.722;8.110;2023-04-01T16:45:57;12.00;99.90
7472;DHT22;3777;48.722;8.110;2023-04-01T16:48:42;12.00;99.90
7472;DHT22;3777;48.722;8.110;2023-04-01T16:51:15;11.90;99.90
7472;DHT22;3777;48.722;8.110;2023-04-01T16:53:48;11.80;99.90
7472;DHT22;3777;48.722;8.110;2023-04-01T16:56:21;11.70;99.90
7472;DHT22;3777;48.722;8.110;2023-04-01T16:58:58;11.50;99.90
7472;DHT22;3777;48.722;8.110;2023-04-01T17:01:36;11.30;99.90
7472;DHT22;3777;48.722;8.110;2023-04-01T17:04:14;11.10;99.90
7472;DHT22;3777;48.722;8.110;2023-04-01T17:06:48;11.00;99.90
7472;DHT22;3777;48.722;8.110;2023-04-01T17:09:26;11.00;99.90
7472;DHT22;3777;48.722;8.110;2023-04-01T17:12:01;10.90;99.90
7472;DHT22;3777;48.722;8.110;2023-04-01T17:14:38;10.90;99.90
7472;DHT22;3777;48.722;8.110;2023-04-01T17:17:19;10.90;99.90
7472;DHT22;3777;48.722;8.110;2023-04-01T17:20:01;10.90;99.90
7472;DHT22;3777;48.722;8.110;2023-04-01T17:22:33;10.90;99.90
7472;DHT22;3777;48.722;8.110;2023-04-01T17:25:25;10.90;99.90
7472;DHT22;3777;48.722;8.110;2023-04-01T17:27:59;10.90;99.90
7472;DHT22;3777;48.722;8.110;2023-04-01T17:30:33;11.00;99.90
7472;DHT22;3777;48.722;8.110;2023-04-01T17:33:25;11.00;99.90
7472;DHT22;3777;48.722;8.110;2023-04-01T17:35:58;11.00;99.90
7472;DHT22;3777;48.722;8.110;2023-04-01T17:38:46;11.00;99.90
7472;DHT22;3777;48.722;8.110;2023-04-01T17:41:28;11.00;99.90
7472;DHT22;3777;48.722;8.110;2023-04-01T17:44:07;10.90;99.90
7472;DHT22;3777;48.722;8.110;2023-04-01T17:46:54;10.70;99.90
7472;DHT22;3777;48.722;8.110;2023-04-01T17:49:26;10.50;99.90
7472;DHT22;3777;48.722;8.110;2023-04-01T17:52:02;10.50;99.90
7472;DHT22;3777;48.722;8.110;2023-04-01T17:54:37;10.40;99.90
7472;DHT22;3777;48.722;8.110;2023-04-01T17:57:29;10.30;99.90
7472;DHT22;3777;48.722;8.110;2023-04-01T18:00:02;10.00;99.90
7472;DHT22;3777;48.722;8.110;2023-04-01T18:02:36;9.80;99.90
7472;DHT22;3777;48.722;8.110;2023-04-01T18:05:24;9.80;99.90
7472;DHT22;3777;48.722;8.110;2023-04-01T18:08:15;9.80;99.90
7472;DHT22;3777;48.722;8.110;2023-04-01T18:10:57;9.80;99.90
7472;DHT22;3777;48.722;8.110;2023-04-01T18:16:43;9.80;99.90